Time;durP1;ratioP1;P1;durP2;ratioP2;P2;SDS_P1;SDS_P2;PMS_P1;PMS_P2;Temp;Humidity;BMP_temperature;BMP_pressure;BME280_temperature;BME280_humidity;BME280_pressure;Samples;Min_cycle;Max_cycle;Signal;HPM_P1;HPM_P2
2022/02/05 12:42:37;;;;;;;;;;;;;;;;;;;;;
2022/02/05 14:05:06;;;;;;;;;;;;;;;;;;;;;
2022/02/05 17:36:03;;;;;;;2.93;1.90;;;22.80;51.30;;;;;;6268141;23;20429;-84
2022/02/05 17:41:49;;;;;;;1.80;1.37;;;22.80;51.30;;;;;;6179575;23;20422;-86
2022/02/05 17:44:24;;;;;;;1.63;1.10;;;22.80;51.30;;;;;;6147366;23;20424;-84
2022/02/05 17:46:55;;;;;;;2.10;1.27;;;22.80;51.30;;;;;;6232333;23;20471;-85
2022/02/05 17:49:28;;;;;;;4.57;1.17;;;22.90;51.40;;;;;;6240582;23;20373;-84
2022/02/05 17:52:05;;;;;;;2.10;1.10;;;22.80;51.30;;;;;;6268344;23;20354;-85
2022/02/05 17:54:40;;;;;;;3.80;1.43;;;22.80;51.30;;;;;;6241710;23;20424;-84
2022/02/05 17:57:19;;;;;;;1.43;1.27;;;22.90;51.40;;;;;;6243678;23;20369;-83
2022/02/05 17:59:52;;;;;;;3.17;1.30;;;22.90;51.40;;;;;;6236441;23;20377;-85
2022/02/05 18:02:33;;;;;;;2.47;1.50;;;22.90;51.40;;;;;;6242356;23;20401;-86
2022/02/05 18:05:10;;;;;;;2.00;1.40;;;22.90;51.40;;;;;;6240946;23;20527;-84
2022/02/05 18:27:37;;;;;;;5.00;1.63;;;22.80;51.40;;;;;;6115459;23;20445;-84
2022/02/05 18:30:32;;;;;;;;;;;;;;;;;;;;;
2022/02/05 18:33:33;;;;;;;;;;;;;;;;;;;;;
2022/02/05 18:50:40;;;;;;;2.33;1.50;;;22.70;51.40;;;;;;5976856;24;20414;-84
2022/02/05 18:53:32;;;;;;;;;;;;;;;;;;;;;
2022/02/05 18:56:20;;;;;;;1.70;1.50;;;22.80;51.60;;;;;;5947472;24;20399;-84
2022/02/05 18:59:03;;;;;;;;;;;;;;;;;;;;;
2022/02/05 19:01:49;;;;;;;1.60;1.30;;;22.70;51.50;;;;;;5969130;24;20382;-84
2022/02/05 19:11:20;;;;;;;2.60;1.40;;;22.70;51.40;;;;;;5973043;24;20443;-83
2022/02/05 19:24:53;;;;;;;;;;;;;;;;;;;;;
2022/02/05 19:27:27;;;;;;;;;;;;;;;;;;;;;
2022/02/05 19:29:55;;;;;;;1.30;1.00;;;22.70;51.50;;;;;;6059247;23;20391;-84
2022/02/05 19:32:36;;;;;;;;;;;;;;;;;;;;;
2022/02/05 19:35:35;;;;;;;;;;;;;;;;;;;;;
2022/02/05 19:38:15;;;;;;;2.20;1.40;;;22.70;51.50;;;;;;6055465;23;20372;-84
2022/02/05 19:45:13;;;;;;;;;;;;;;;;;;;;;
2022/02/05 19:48:09;;;;;;;2.60;1.40;;;22.70;51.50;;;;;;5994471;24;20393;-83
2022/02/05 19:53:28;;;;;;;1.50;1.40;;;22.70;51.50;;;;;;5995786;24;20461;-81
2022/02/05 19:55:54;;;;;;;1.40;1.10;;;22.70;51.60;;;;;;5974253;24;20417;-80
2022/02/05 19:58:19;;;;;;;2.07;1.00;;;22.80;51.60;;;;;;5998051;24;20848;-81
2022/02/05 20:00:48;;;;;;;1.57;1.13;;;22.70;51.50;;;;;;5974041;24;20152;-79
2022/02/05 20:03:15;;;;;;;1.67;1.30;;;22.70;51.50;;;;;;5993452;23;20546;-81
2022/02/05 20:05:51;;;;;;;1.40;1.27;;;22.70;51.50;;;;;;6054355;23;20387;-80
2022/02/05 20:08:28;;;;;;;1.97;1.20;;;22.80;51.50;;;;;;6055600;23;20387;-81
2022/02/05 20:10:57;;;;;;;1.53;1.00;;;22.80;52.10;;;;;;6055919;23;20403;-81
2022/02/05 20:13:26;;;;;;;2.63;1.20;;;22.80;51.50;;;;;;6030839;23;20387;-81
2022/02/05 20:15:54;;;;;;;2.60;1.20;;;22.80;51.50;;;;;;6032698;23;20397;-82
2022/02/05 20:18:24;;;;;;;1.30;1.00;;;22.80;51.50;;;;;;6055960;23;20407;-81
2022/02/05 20:20:50;;;;;;;1.23;1.10;;;22.80;51.40;;;;;;6106181;23;20444;-81
2022/02/05 20:23:17;;;;;;;1.40;1.10;;;22.80;51.40;;;;;;6142137;23;20384;-82
2022/02/05 20:25:50;;;;;;;1.47;1.10;;;22.90;51.40;;;;;;6117609;23;20415;-81
2022/02/05 20:28:17;;;;;;;2.10;1.33;;;22.90;51.40;;;;;;6118127;23;20380;-81
2022/02/05 20:30:59;;;;;;;2.50;1.30;;;22.90;51.40;;;;;;6118745;23;20409;-81
2022/02/05 20:33:30;;;;;;;1.50;1.00;;;22.90;51.50;;;;;;6089441;23;20432;-81
2022/02/05 20:36:00;;;;;;;2.20;1.30;;;22.90;51.40;;;;;;6142667;23;20396;-81
2022/02/05 20:38:32;;;;;;;1.93;1.30;;;22.90;51.40;;;;;;6143302;23;20808;-81
2022/02/05 20:42:12;;;;;;;;;;;;;;;;;;;;;
2022/02/05 20:44:55;;;;;;;1.30;1.00;;;22.90;51.40;;;;;;6046966;23;20410;-85
2022/02/05 20:57:18;;;;;;;1.67;1.30;;;22.90;51.40;;;;;;6060390;23;20390;-86
2022/02/05 21:17:18;;;;;;;;;;;;;;;;;;;;;
2022/02/05 21:20:37;;;;;;;;;;;;;;;;;;;;;
2022/02/05 21:23:11;;;;;;;1.20;1.00;;;22.90;51.50;;;;;;6204233;23;20406;-86
2022/02/05 21:26:19;;;;;;;1.30;1.10;;;22.80;51.50;;;;;;6230808;23;20361;-86
2022/02/05 21:29:23;;;;;;;;;;;;;;;;;;;;;
2022/02/05 21:32:22;;;;;;;;;;;;;;;;;;;;;
2022/02/05 21:35:22;;;;;;;1.60;1.00;;;22.80;51.40;;;;;;6239779;23;20456;-86
2022/02/05 21:38:18;;;;;;;;;;;;;;;;;;;;;
2022/02/05 21:50:49;;;;;;;1.73;1.10;;;22.80;51.40;;;;;;6169057;23;20412;-86
2022/02/05 21:53:57;;;;;;;1.60;1.50;;;22.80;51.40;;;;;;6168689;23;20393;-86
2022/02/05 21:57:04;;;;;;;1.40;0.80;;;22.80;51.40;;;;;;6167164;23;20376;-86
2022/02/05 22:06:37;;;;;;;;;;;;;;;;;;;;;
2022/02/05 22:09:33;;;;;;;1.50;0.90;;;22.80;51.40;;;;;;6163940;23;20411;-86
2022/02/05 22:16:05;;;;;;;;;;;;;;;;;;;;;
2022/02/05 22:19:11;;;;;;;;;;;;;;;;;;;;;
2022/02/05 22:22:04;;;;;;;2.07;1.10;;;22.90;51.50;;;;;;6161759;23;20390;-87
2022/02/05 22:41:26;;;;;;;;;;;;;;;;;;;;;
2022/02/05 22:44:53;;;;;;;1.40;1.30;;;22.90;51.50;;;;;;6107276;23;20388;-87
2022/02/05 22:47:53;;;;;;;1.70;1.10;;;22.90;51.50;;;;;;6104935;23;20393;-86
2022/02/05 22:51:10;;;;;;;;;;;;;;;;;;;;;
2022/02/05 22:54:11;;;;;;;;;;;;;;;;;;;;;
2022/02/05 22:57:37;;;;;;;;;;;;;;;;;;;;;
2022/02/05 23:00:46;;;;;;;1.03;0.83;;;22.90;51.50;;;;;;6110868;23;20378;-86
2022/02/05 23:03:41;;;;;;;;;;;;;;;;;;;;;
2022/02/05 23:06:08;;;;;;;1.77;1.10;;;22.90;51.50;;;;;;6194130;23;20398;-86
2022/02/05 23:08:46;;;;;;;1.03;0.80;;;22.90;51.50;;;;;;6200393;23;20406;-86
2022/02/05 23:42:07;;;;;;;1.57;0.90;;;22.90;51.40;;;;;;6154567;23;20439;-83
2022/02/05 23:43:48;;;;;;;1.70;0.97;;;22.90;51.40;;;;;;6169838;23;20395;-84
2022/02/05 23:46:33;;;;;;;1.30;0.90;;;22.90;51.40;;;;;;6171077;23;20380;-84
2022/02/05 23:49:19;;;;;;;1.20;0.90;;;22.90;51.40;;;;;;6171360;23;20423;-85
2022/02/05 23:52:11;;;;;;;1.10;0.80;;;22.90;51.40;;;;;;6245850;23;20393;-85
2022/02/05 23:54:44;;;;;;;2.00;0.97;;;22.90;51.40;;;;;;6236707;23;20420;-85
2022/02/05 23:57:25;;;;;;;1.00;0.90;;;22.90;51.40;;;;;;6263837;23;20452;-85
